Time;durP1;ratioP1;P1;durP2;ratioP2;P2;SDS_P1;SDS_P2;PMS_P1;PMS_P2;Temp;Humidity;BMP_temperature;BMP_pressure;BME280_temperature;BME280_humidity;BME280_pressure;Samples;Min_cycle;Max_cycle;Signal;HPM_P1;HPM_P2
2022/01/18 00:01:37;;;;;;;59.70;8.55;;;;;;;5.65;100.00;103687.97;6242745;22;20348;-78
2022/01/18 00:04:07;;;;;;;69.28;8.88;;;;;;;5.60;100.00;103683.22;6273214;22;20281;-78
2022/01/18 00:06:39;;;;;;;60.03;8.07;;;;;;;5.55;100.00;103674.13;6276212;22;20022;-78
2022/01/18 00:09:08;;;;;;;61.95;8.07;;;;;;;5.52;100.00;103681.75;6324462;22;20025;-79
2022/01/18 00:11:48;;;;;;;58.67;9.07;;;;;;;5.47;100.00;103684.06;6338336;22;20026;-78
2022/01/18 00:14:27;;;;;;;69.57;8.63;;;;;;;5.43;100.00;103684.66;6278097;22;20027;-78
2022/01/18 00:19:53;;;;;;;71.05;9.43;;;;;;;5.33;100.00;103688.34;6289709;22;20030;-78
2022/01/18 00:22:25;;;;;;;66.75;10.82;;;;;;;5.28;100.00;103692.34;6278239;22;20014;-78
2022/01/18 00:24:54;;;;;;;54.17;9.23;;;;;;;5.25;100.00;103702.56;6294652;22;20227;-79
2022/01/18 00:27:27;;;;;;;66.68;10.60;;;;;;;5.19;100.00;103695.19;6307856;22;20500;-79
2022/01/18 00:33:05;;;;;;;79.30;10.55;;;;;;;5.11;100.00;103675.44;6299750;22;20018;-78
2022/01/18 00:35:20;;;;;;;70.38;10.23;;;;;;;5.07;100.00;103678.66;6268324;22;20030;-78
2022/01/18 00:37:55;;;;;;;71.88;10.07;;;;;;;5.03;100.00;103669.69;6303362;22;20025;-78
2022/01/18 00:40:23;;;;;;;55.63;7.78;;;;;;;4.98;100.00;103673.66;6288700;22;20017;-78
2022/01/18 00:42:53;;;;;;;72.22;9.13;;;;;;;4.96;100.00;103690.03;6331332;22;20042;-78
2022/01/18 00:45:22;;;;;;;68.35;8.27;;;;;;;4.92;100.00;103699.38;6287051;22;20015;-79
2022/01/18 00:47:50;;;;;;;58.08;8.68;;;;;;;4.88;100.00;103697.34;6301011;22;20020;-78
2022/01/18 00:50:19;;;;;;;57.40;8.43;;;;;;;4.86;100.00;103692.00;6313362;22;20042;-78
2022/01/18 00:52:51;;;;;;;53.55;7.30;;;;;;;4.83;100.00;103694.38;6269988;22;20026;-78
2022/01/18 00:55:20;;;;;;;70.50;7.38;;;;;;;4.80;100.00;103702.00;6312385;22;20026;-79
2022/01/18 00:57:48;;;;;;;49.45;7.95;;;;;;;4.77;100.00;103701.78;6273485;22;20018;-78
2022/01/18 01:00:17;;;;;;;42.47;6.13;;;;;;;4.73;100.00;103702.34;6311765;22;20022;-78
2022/01/18 01:02:46;;;;;;;57.60;7.43;;;;;;;4.69;100.00;103706.44;6294669;22;20014;-78
2022/01/18 01:05:14;;;;;;;46.15;8.43;;;;;;;4.65;100.00;103704.41;6310987;22;20030;-78
2022/01/18 01:07:43;;;;;;;71.43;8.13;;;;;;;4.61;100.00;103710.22;6287120;22;20015;-78
2022/01/18 01:10:29;;;;;;;53.25;6.90;;;;;;;4.56;100.00;103708.97;6258917;22;20018;-78
2022/01/18 01:12:58;;;;;;;50.95;7.53;;;;;;;4.54;100.00;103705.31;6303544;22;20360;-77
2022/01/18 01:15:32;;;;;;;62.25;8.73;;;;;;;4.52;100.00;103706.00;6304613;22;20023;-77
2022/01/18 01:18:16;;;;;;;50.53;7.47;;;;;;;4.48;100.00;103707.50;6300597;22;20218;-78
2022/01/18 01:46:07;;;;;;;44.22;6.68;;;;;;;4.58;100.00;103701.25;6310294;22;20546;-77
2022/01/18 01:48:36;;;;;;;58.85;8.57;;;;;;;4.62;100.00;103708.50;6277359;22;20026;-79
2022/01/18 01:51:05;;;;;;;70.88;8.40;;;;;;;4.67;100.00;103701.91;6295434;22;20143;-77
2022/01/18 01:53:34;;;;;;;67.93;7.07;;;;;;;4.71;100.00;103708.25;6271425;22;20022;-78
2022/01/18 01:56:03;;;;;;;64.47;6.75;;;;;;;4.74;100.00;103705.88;6272141;22;20022;-78
2022/01/18 01:58:32;;;;;;;58.63;6.57;;;;;;;4.75;100.00;103716.44;6265906;22;20023;-77
2022/01/18 02:01:06;;;;;;;56.00;6.88;;;;;;;4.74;100.00;103714.59;6331364;22;20213;-78
2022/01/18 02:03:35;;;;;;;59.45;8.15;;;;;;;4.73;100.00;103712.81;6310265;22;20018;-77
2022/01/18 02:06:04;;;;;;;46.78;6.93;;;;;;;4.73;100.00;103704.97;6277878;22;20224;-78
2022/01/18 02:08:33;;;;;;;53.42;6.63;;;;;;;4.72;100.00;103715.31;6328401;22;20026;-77
2022/01/18 02:11:03;;;;;;;52.90;6.93;;;;;;;4.69;100.00;103716.91;6300976;22;20037;-77
2022/01/18 02:13:35;;;;;;;49.95;6.65;;;;;;;4.69;100.00;103719.50;6298475;22;20019;-78
2022/01/18 02:24:18;;;;;;;56.03;6.63;;;;;;;4.71;100.00;103713.47;6325913;22;20015;-77
2022/01/18 02:26:47;;;;;;;47.97;5.85;;;;;;;4.71;100.00;103705.63;6324143;22;20231;-78
2022/01/18 02:29:16;;;;;;;60.60;6.55;;;;;;;4.73;100.00;103711.91;6266203;22;20046;-78
2022/01/18 02:31:46;;;;;;;50.78;7.53;;;;;;;4.73;100.00;103704.97;6296494;22;20224;-78
2022/01/18 02:34:18;;;;;;;47.22;5.55;;;;;;;4.74;100.00;103704.16;6297974;22;20026;-78
2022/01/18 02:36:47;;;;;;;46.00;6.55;;;;;;;4.76;100.00;103705.16;6309782;22;20015;-78
2022/01/18 02:39:24;;;;;;;47.13;5.95;;;;;;;4.80;100.00;103706.31;6236225;22;20023;-78
2022/01/18 02:41:55;;;;;;;41.78;6.65;;;;;;;4.83;100.00;103698.69;6334097;22;20018;-78
2022/01/18 02:44:25;;;;;;;50.30;6.65;;;;;;;4.86;100.00;103710.28;6304799;22;20460;-78
2022/01/18 02:46:53;;;;;;;53.47;5.60;;;;;;;4.89;100.00;103715.72;6309500;22;20015;-78
2022/01/18 02:49:26;;;;;;;35.17;5.13;;;;;;;4.94;100.00;103709.94;6304850;22;20015;-78
2022/01/18 02:51:57;;;;;;;38.35;5.93;;;;;;;4.96;100.00;103706.63;6279748;22;20444;-78
2022/01/18 02:54:26;;;;;;;42.33;5.38;;;;;;;5.01;100.00;103712.16;6311069;22;20471;-79
2022/01/18 02:57:00;;;;;;;43.85;5.30;;;;;;;5.04;100.00;103709.78;6240141;22;20046;-78
2022/01/18 03:05:18;;;;;;;41.03;5.45;;;;;;;5.15;100.00;103729.75;6336577;22;20015;-78
2022/01/18 03:07:46;;;;;;;42.20;6.00;;;;;;;5.18;100.00;103750.91;6285759;22;20049;-78
2022/01/18 03:10:16;;;;;;;39.85;8.10;;;;;;;5.21;100.00;103744.97;6331792;22;20015;-78
2022/01/18 03:12:45;;;;;;;39.30;5.63;;;;;;;5.21;100.00;103727.56;6297321;22;20248;-78
2022/01/18 03:15:15;;;;;;;33.55;5.05;;;;;;;5.24;100.00;103737.38;6310231;22;20026;-78
2022/01/18 03:17:43;;;;;;;33.03;5.20;;;;;;;5.25;100.00;103731.31;6330873;22;20015;-78
2022/01/18 03:20:15;;;;;;;24.58;5.45;;;;;;;5.28;100.00;103735.06;6307357;22;20344;-78
2022/01/18 03:22:45;;;;;;;30.25;4.47;;;;;;;5.31;100.00;103726.53;6249917;22;20033;-78
2022/01/18 03:28:18;;;;;;;35.40;5.93;;;;;;;5.34;100.00;103729.38;6147483;23;20020;-78
2022/01/18 03:30:53;;;;;;;30.88;4.35;;;;;;;5.35;100.00;103723.34;6315712;22;20228;-78
2022/01/18 03:33:25;;;;;;;32.65;4.32;;;;;;;5.36;100.00;103730.38;6330990;22;20019;-78
2022/01/18 03:35:54;;;;;;;34.80;4.75;;;;;;;5.37;100.00;103731.28;6293864;22;20022;-78
2022/01/18 03:38:29;;;;;;;34.53;5.53;;;;;;;5.37;100.00;103729.59;6306591;22;20019;-78
2022/01/18 03:41:03;;;;;;;28.55;4.05;;;;;;;5.37;100.00;103731.28;6312254;22;20718;-78
2022/01/18 03:43:37;;;;;;;21.85;4.20;;;;;;;5.38;100.00;103723.53;6268693;22;20156;-77
2022/01/18 03:46:06;;;;;;;30.33;4.68;;;;;;;5.40;100.00;103721.94;6308523;22;20043;-77
2022/01/18 03:48:38;;;;;;;22.45;4.20;;;;;;;5.42;100.00;103720.34;6299399;22;20503;-78
2022/01/18 03:51:08;;;;;;;27.27;4.03;;;;;;;5.43;100.00;103721.28;6287659;22;20018;-77
2022/01/18 03:53:38;;;;;;;27.60;3.30;;;;;;;5.46;100.00;103729.31;6246709;22;20136;-79
2022/01/18 03:56:07;;;;;;;15.43;3.63;;;;;;;5.46;100.00;103737.16;6311897;22;20023;-78
2022/01/18 03:58:35;;;;;;;21.50;3.83;;;;;;;5.47;100.00;103733.75;6294026;22;20045;-78
2022/01/18 04:01:03;;;;;;;17.90;3.72;;;;;;;5.49;100.00;103746.94;6285265;22;20483;-78
2022/01/18 04:03:32;;;;;;;18.75;3.28;;;;;;;5.50;100.00;103743.50;6296843;22;20507;-78
2022/01/18 04:06:01;;;;;;;19.17;3.38;;;;;;;5.51;100.00;103742.72;6287064;22;20006;-78
2022/01/18 04:08:29;;;;;;;21.20;3.72;;;;;;;5.53;100.00;103746.34;6281579;22;20019;-78
2022/01/18 04:10:57;;;;;;;22.75;3.72;;;;;;;5.54;100.00;103756.00;6285604;22;20015;-78
2022/01/18 04:13:26;;;;;;;18.60;3.50;;;;;;;5.56;100.00;103749.19;6245743;22;20025;-78
2022/01/18 04:15:55;;;;;;;22.92;3.92;;;;;;;5.56;100.00;103750.09;6263165;22;20023;-78
2022/01/18 04:18:51;;;;;;;28.23;5.22;;;;;;;5.57;100.00;103751.00;6274176;22;20022;-78
2022/01/18 04:26:57;;;;;;;22.17;3.78;;;;;;;5.59;100.00;103747.69;6250186;22;20022;-79
2022/01/18 04:29:26;;;;;;;15.15;3.78;;;;;;;5.60;100.00;103757.34;6244392;22;20018;-78
2022/01/18 04:31:54;;;;;;;20.38;4.82;;;;;;;5.61;100.00;103755.63;6257066;22;20010;-79
2022/01/18 04:34:24;;;;;;;16.70;3.72;;;;;;;5.61;100.00;103759.19;6282335;22;20069;-78
2022/01/18 04:36:53;;;;;;;24.08;3.25;;;;;;;5.61;100.00;103753.97;6282918;22;20042;-78
2022/01/18 04:39:22;;;;;;;17.50;2.72;;;;;;;5.61;100.00;103758.25;6301608;22;20026;-78
2022/01/18 04:41:50;;;;;;;14.93;2.97;;;;;;;5.60;100.00;103748.59;6336260;22;20019;-77
2022/01/18 04:49:53;;;;;;;13.55;2.78;;;;;;;5.59;100.00;103750.28;6290412;22;20030;-77
2022/01/18 04:52:22;;;;;;;11.38;2.33;;;;;;;5.61;100.00;103750.41;6311250;22;20026;-78
2022/01/18 04:54:59;;;;;;;14.23;3.03;;;;;;;5.60;100.00;103748.59;6309162;22;20026;-78
2022/01/18 05:00:19;;;;;;;13.27;2.88;;;;;;;5.59;100.00;103746.78;6335535;22;20228;-78
2022/01/18 05:02:50;;;;;;;12.30;1.87;;;;;;;5.58;100.00;103739.75;6293840;22;20019;-77
2022/01/18 05:05:25;;;;;;;11.50;1.95;;;;;;;5.57;100.00;103746.66;6302917;22;20493;-78
2022/01/18 05:07:58;;;;;;;12.88;3.17;;;;;;;5.56;100.00;103749.19;6307694;22;20480;-78
2022/01/18 05:10:29;;;;;;;10.88;2.65;;;;;;;5.56;100.00;103738.75;6300751;22;20018;-78
2022/01/18 05:13:00;;;;;;;9.93;2.78;;;;;;;5.56;100.00;103746.59;6273699;22;20045;-78
2022/01/18 05:18:59;;;;;;;18.05;3.00;;;;;;;5.56;100.00;103754.44;6324352;22;20014;-78
2022/01/18 05:21:17;;;;;;;16.17;3.75;;;;;;;5.57;100.00;103751.00;6333373;22;20482;-78
2022/01/18 05:23:45;;;;;;;15.50;3.33;;;;;;;5.57;100.00;103759.75;6255044;22;20561;-78
2022/01/18 05:26:14;;;;;;;10.93;2.30;;;;;;;5.56;100.00;103751.81;6311943;22;20014;-78
2022/01/18 05:28:43;;;;;;;12.20;1.77;;;;;;;5.56;100.00;103755.34;6303316;22;20550;-78
2022/01/18 05:31:12;;;;;;;14.38;2.90;;;;;;;5.57;100.00;103764.97;6279672;22;20015;-78
2022/01/18 05:33:42;;;;;;;13.52;3.13;;;;;;;5.58;100.00;103764.19;6292555;22;20515;-78
2022/01/18 05:36:11;;;;;;;18.63;3.05;;;;;;;5.59;100.00;103767.72;6307426;22;20026;-78
2022/01/18 05:38:40;;;;;;;16.40;2.38;;;;;;;5.59;100.00;103778.16;6306008;22;20026;-78
2022/01/18 05:41:09;;;;;;;12.52;2.70;;;;;;;5.60;100.00;103777.38;6304684;22;20022;-78
2022/01/18 05:43:38;;;;;;;14.00;2.60;;;;;;;5.60;100.00;103770.44;6302349;22;20566;-78
2022/01/18 05:46:06;;;;;;;8.88;2.15;;;;;;;5.62;100.00;103773.16;6285652;22;20175;-78
2022/01/18 05:48:35;;;;;;;14.63;2.53;;;;;;;5.62;100.00;103775.78;6284054;22;20011;-78
2022/01/18 05:51:04;;;;;;;11.73;1.95;;;;;;;5.63;100.00;103764.50;6301374;22;20025;-78
2022/01/18 05:53:39;;;;;;;9.43;2.40;;;;;;;5.61;100.00;103759.19;6307280;22;20015;-78
2022/01/18 05:56:11;;;;;;;17.20;2.55;;;;;;;5.63;100.00;103767.13;6302315;22;20026;-78
2022/01/18 05:58:43;;;;;;;13.23;2.88;;;;;;;5.63;100.00;103773.28;6301660;22;20112;-78
2022/01/18 06:01:14;;;;;;;12.63;2.40;;;;;;;5.63;100.00;103775.91;6335399;22;20023;-78
2022/01/18 06:09:17;;;;;;;9.40;2.25;;;;;;;5.62;100.00;103786.25;6315182;22;20026;-78
2022/01/18 06:11:45;;;;;;;9.18;2.30;;;;;;;5.62;100.00;103781.03;6302335;22;20014;-78
2022/01/18 06:14:15;;;;;;;15.85;2.80;;;;;;;5.63;100.00;103782.81;6281043;22;20011;-77
2022/01/18 06:16:43;;;;;;;16.48;3.65;;;;;;;5.62;100.00;103783.63;6304661;22;20235;-77
2022/01/18 06:19:12;;;;;;;18.05;2.90;;;;;;;5.62;100.00;103788.88;6313023;22;20019;-78
2022/01/18 06:21:41;;;;;;;13.52;2.50;;;;;;;5.61;100.00;103790.59;6263671;22;20703;-77
2022/01/18 06:24:11;;;;;;;14.27;2.53;;;;;;;5.59;100.00;103792.16;6312198;22;20025;-79
2022/01/18 06:27:00;;;;;;;14.25;2.90;;;;;;;5.58;100.00;103794.69;6304044;22;20018;-79
2022/01/18 06:29:28;;;;;;;10.90;2.55;;;;;;;5.58;100.00;103797.31;6306475;22;20353;-78
2022/01/18 06:31:57;;;;;;;16.38;2.75;;;;;;;5.57;100.00;103796.38;6280314;22;20027;-78
2022/01/18 06:34:25;;;;;;;15.70;3.20;;;;;;;5.58;100.00;103800.81;6312641;22;20041;-78
2022/01/18 06:36:56;;;;;;;12.52;3.05;;;;;;;5.58;100.00;103800.81;6272484;22;20022;-76
2022/01/18 06:39:25;;;;;;;18.42;2.30;;;;;;;5.57;100.00;103801.59;6296485;22;20025;-77
2022/01/18 06:41:54;;;;;;;14.80;2.97;;;;;;;5.54;100.00;103804.03;6310374;22;20140;-77
2022/01/18 06:44:24;;;;;;;11.10;3.00;;;;;;;5.54;100.00;103803.09;6336025;22;20018;-77
2022/01/18 06:46:53;;;;;;;14.50;3.47;;;;;;;5.52;100.00;103810.84;6311263;22;20238;-77
2022/01/18 06:49:22;;;;;;;15.98;3.30;;;;;;;5.52;100.00;103804.69;6298934;22;20030;-79
2022/01/18 06:51:52;;;;;;;18.75;3.03;;;;;;;5.51;100.00;103808.13;6322596;22;20128;-77
2022/01/18 06:54:21;;;;;;;;;;;;;;;5.49;100.00;103801.88;6262853;22;20023;-78
2022/01/18 06:56:50;;;;;;;22.52;3.30;;;;;;;5.47;100.00;103801.75;6322262;22;19914;-79
2022/01/18 06:59:18;;;;;;;20.77;3.78;;;;;;;5.46;100.00;103800.88;6231600;22;20023;-79
2022/01/18 07:01:47;;;;;;;21.75;4.00;;;;;;;5.46;100.00;103799.94;6295374;22;20027;-78
2022/01/18 07:04:15;;;;;;;18.45;3.00;;;;;;;5.43;100.00;103792.78;6275148;22;20026;-79
2022/01/18 07:06:45;;;;;;;20.77;3.67;;;;;;;5.42;100.00;103804.03;6272971;22;20479;-79
2022/01/18 07:09:15;;;;;;;14.85;3.50;;;;;;;5.40;100.00;103799.50;6281580;22;20018;-79
2022/01/18 07:11:44;;;;;;;17.95;2.78;;;;;;;5.38;100.00;103807.22;6309188;22;20022;-80
2022/01/18 07:14:13;;;;;;;16.45;3.30;;;;;;;5.36;100.00;103798.38;6305340;22;20369;-79
2022/01/18 07:16:41;;;;;;;15.05;3.35;;;;;;;5.34;100.00;103810.44;6282701;22;20022;-79
2022/01/18 07:19:10;;;;;;;19.17;3.55;;;;;;;5.33;100.00;103795.56;6285226;22;20011;-79
2022/01/18 07:21:39;;;;;;;22.67;5.82;;;;;;;5.30;100.00;103797.94;6261210;22;20448;-80
2022/01/18 07:24:24;;;;;;;20.27;4.45;;;;;;;5.29;100.00;103796.09;6295849;22;20025;-80
2022/01/18 07:27:00;;;;;;;22.45;3.58;;;;;;;5.29;100.00;103790.88;6302660;22;20479;-79
2022/01/18 07:29:29;;;;;;;16.60;3.28;;;;;;;5.28;100.00;103796.91;6224192;22;20337;-79
2022/01/18 07:31:58;;;;;;;17.60;3.15;;;;;;;5.27;100.00;103793.41;6279556;22;20467;-79
2022/01/18 07:34:27;;;;;;;12.80;3.72;;;;;;;5.27;100.00;103797.69;6271642;22;20023;-79
2022/01/18 07:36:55;;;;;;;16.52;3.60;;;;;;;5.28;100.00;103804.75;6311530;22;20019;-79
2022/01/18 07:39:24;;;;;;;20.02;3.53;;;;;;;5.27;100.00;103793.41;6269403;22;20460;-80
2022/01/18 07:41:53;;;;;;;17.73;3.53;;;;;;;5.29;100.00;103796.09;6307320;22;20014;-79
2022/01/18 07:44:21;;;;;;;14.80;3.47;;;;;;;5.30;100.00;103794.41;6308854;22;20019;-79
2022/01/18 07:46:50;;;;;;;19.30;4.75;;;;;;;5.30;100.00;103808.41;6239839;22;20026;-79
2022/01/18 07:49:21;;;;;;;17.75;4.28;;;;;;;5.31;100.00;103804.06;6245158;22;20019;-80
2022/01/18 07:51:50;;;;;;;18.38;4.40;;;;;;;5.32;100.00;103790.22;6331221;22;20026;-79
2022/01/18 07:54:19;;;;;;;23.38;4.30;;;;;;;5.33;100.00;103798.16;6321322;22;20029;-80
2022/01/18 07:56:47;;;;;;;18.67;3.60;;;;;;;5.32;100.00;103791.09;6307378;22;20457;-79
2022/01/18 07:59:16;;;;;;;18.52;4.05;;;;;;;5.34;100.00;103783.38;6302600;22;20015;-79
2022/01/18 08:01:44;;;;;;;16.75;3.88;;;;;;;5.34;100.00;103786.91;6275334;22;20027;-79
2022/01/18 08:04:15;;;;;;;17.75;3.63;;;;;;;5.34;100.00;103793.84;6272550;22;20352;-80
2022/01/18 08:06:43;;;;;;;20.13;4.40;;;;;;;5.34;100.00;103794.75;6265852;22;20211;-78
2022/01/18 08:09:12;;;;;;;10.60;3.72;;;;;;;5.35;100.00;103801.81;6267309;22;20015;-79
2022/01/18 08:11:40;;;;;;;14.88;3.55;;;;;;;5.35;100.00;103804.41;6339635;22;20023;-79
2022/01/18 08:14:13;;;;;;;18.33;4.13;;;;;;;5.37;100.00;103804.50;6281022;22;20019;-81
2022/01/18 08:16:59;;;;;;;14.35;4.45;;;;;;;5.37;100.00;103805.44;6313721;22;20030;-80
2022/01/18 08:19:29;;;;;;;13.35;3.63;;;;;;;5.37;100.00;103810.66;6287583;22;20133;-80
2022/01/18 08:22:05;;;;;;;17.50;3.72;;;;;;;5.40;100.00;103810.84;6287486;22;20019;-80
2022/01/18 08:24:35;;;;;;;17.65;3.97;;;;;;;5.40;100.00;103813.47;6313268;22;20232;-79
2022/01/18 08:27:07;;;;;;;6.50;3.20;;;;;;;5.42;100.00;103809.25;6310802;22;20014;-80
2022/01/18 08:29:36;;;;;;;12.80;3.40;;;;;;;5.44;100.00;103819.84;6287054;22;20615;-80
2022/01/18 08:32:17;;;;;;;10.63;3.28;;;;;;;5.45;100.00;103813.81;6302699;22;20042;-78
2022/01/18 08:34:45;;;;;;;9.60;3.53;;;;;;;5.47;100.00;103814.84;6331234;22;20021;-80
2022/01/18 08:37:14;;;;;;;12.88;3.17;;;;;;;5.50;100.00;103806.28;6279257;22;20131;-80
2022/01/18 08:39:43;;;;;;;12.02;3.28;;;;;;;5.50;100.00;103802.00;6303636;22;20010;-80
2022/01/18 08:42:11;;;;;;;19.98;4.90;;;;;;;5.53;100.00;103811.75;6292128;22;20295;-80
2022/01/18 08:44:43;;;;;;;13.65;3.35;;;;;;;5.54;100.00;103816.16;6297543;22;20018;-81
2022/01/18 08:47:15;;;;;;;10.25;3.28;;;;;;;5.54;100.00;103817.09;6279128;22;20330;-79
2022/01/18 08:49:44;;;;;;;9.90;3.50;;;;;;;5.56;100.00;103818.13;6279378;22;20015;-79
2022/01/18 08:52:13;;;;;;;17.75;3.90;;;;;;;5.58;100.00;103820.84;6263298;22;20140;-80
2022/01/18 08:54:43;;;;;;;7.07;2.70;;;;;;;5.60;100.00;103829.72;6271675;22;20006;-81
2022/01/18 08:57:13;;;;;;;10.40;3.00;;;;;;;5.60;100.00;103829.72;6284496;22;20128;-80
2022/01/18 08:59:43;;;;;;;13.82;3.53;;;;;;;5.60;100.00;103824.47;6306167;22;20018;-79
2022/01/18 09:02:12;;;;;;;8.98;3.58;;;;;;;5.61;100.00;103835.06;6278415;22;20015;-79
2022/01/18 09:04:41;;;;;;;14.13;2.92;;;;;;;5.64;100.00;103842.19;6300183;22;20022;-78
2022/01/18 09:07:17;;;;;;;9.15;3.33;;;;;;;5.68;100.00;103841.63;6322647;22;20363;-79
2022/01/18 09:09:48;;;;;;;14.90;3.72;;;;;;;5.70;100.00;103831.25;6303298;22;20360;-79
2022/01/18 09:12:17;;;;;;;14.88;4.65;;;;;;;5.72;100.00;103835.78;6285666;22;20022;-79
2022/01/18 09:14:46;;;;;;;9.63;3.78;;;;;;;5.76;100.00;103840.44;6275565;22;20023;-80
2022/01/18 09:17:14;;;;;;;11.15;3.42;;;;;;;5.79;100.00;103838.06;6271831;22;20471;-80
2022/01/18 09:19:43;;;;;;;15.23;4.03;;;;;;;5.83;100.00;103849.66;6279710;22;20015;-80
2022/01/18 09:22:11;;;;;;;15.63;4.15;;;;;;;5.87;100.00;103838.59;6331902;22;20019;-80
2022/01/18 09:24:40;;;;;;;16.13;3.70;;;;;;;5.89;100.00;103838.72;6284307;22;20019;-80
2022/01/18 09:27:08;;;;;;;17.02;3.63;;;;;;;5.91;100.00;103842.34;6267687;22;20025;-80
2022/01/18 09:29:39;;;;;;;14.98;4.65;;;;;;;5.93;100.00;103841.63;6307837;22;20441;-80
2022/01/18 09:32:08;;;;;;;17.10;3.42;;;;;;;5.98;100.00;103848.16;6269775;22;20026;-79
2022/01/18 09:34:37;;;;;;;17.58;3.58;;;;;;;6.02;100.00;103851.88;6262914;22;20026;-80
2022/01/18 09:37:07;;;;;;;16.35;4.00;;;;;;;6.04;100.00;103845.94;6281434;22;20023;-79
2022/01/18 09:39:39;;;;;;;14.85;3.72;;;;;;;6.11;100.00;103849.00;6292327;22;20242;-79
2022/01/18 09:42:10;;;;;;;13.65;4.45;;;;;;;6.13;100.00;103835.22;6281295;22;20624;-78
2022/01/18 09:44:39;;;;;;;16.58;3.80;;;;;;;6.17;100.00;103841.56;6297090;22;20015;-79
2022/01/18 09:47:08;;;;;;;15.68;3.88;;;;;;;6.19;100.00;103846.09;6306155;22;20019;-78
2022/01/18 09:49:37;;;;;;;18.65;4.32;;;;;;;6.22;100.00;103842.81;6271915;22;20243;-81
2022/01/18 09:52:06;;;;;;;19.75;4.75;;;;;;;6.26;100.00;103847.44;6264667;22;20025;-78
2022/01/18 09:54:34;;;;;;;17.50;3.80;;;;;;;6.27;100.00;103837.88;6249938;22;20026;-81
2022/01/18 09:57:03;;;;;;;18.63;4.25;;;;;;;6.23;100.00;103848.13;6250145;22;20014;-78
2022/01/18 09:59:32;;;;;;;22.50;5.13;;;;;;;6.25;100.00;103858.72;6316928;22;20019;-79
2022/01/18 10:02:03;;;;;;;21.50;5.63;;;;;;;6.25;100.00;103854.38;6247004;22;20059;-78
2022/01/18 10:04:37;;;;;;;;;;;;;;;6.24;100.00;103859.53;6268127;22;20021;-78
2022/01/18 10:07:06;;;;;;;18.55;4.30;;;;;;;6.24;100.00;103857.81;6295358;22;19914;-79
2022/01/18 10:09:35;;;;;;;15.95;4.63;;;;;;;6.27;100.00;103858.81;6268441;22;20019;-80
2022/01/18 10:12:08;;;;;;;17.35;3.67;;;;;;;6.28;100.00;103858.94;6287801;22;20448;-80
2022/01/18 10:14:56;;;;;;;14.40;3.80;;;;;;;6.30;100.00;103859.06;6290008;22;20022;-80
2022/01/18 10:17:32;;;;;;;19.50;4.10;;;;;;;6.30;100.00;103854.72;6288350;22;20639;-79
2022/01/18 10:20:06;;;;;;;15.73;4.15;;;;;;;6.31;100.00;103861.75;6302664;22;20026;-79
2022/01/18 10:22:48;;;;;;;13.65;4.18;;;;;;;6.33;100.00;103857.56;6280885;22;20015;-79
2022/01/18 10:25:27;;;;;;;17.45;4.20;;;;;;;6.36;100.00;103851.59;6306932;22;20164;-80
2022/01/18 10:27:56;;;;;;;9.85;3.60;;;;;;;6.36;100.00;103854.22;6293493;22;20019;-79
2022/01/18 10:30:44;;;;;;;12.95;3.65;;;;;;;6.38;100.00;103852.63;6299067;22;20015;-79
2022/01/18 10:33:18;;;;;;;16.27;3.55;;;;;;;6.40;100.00;103848.38;6276553;22;20023;-79
2022/01/18 10:36:15;;;;;;;17.98;3.92;;;;;;;6.40;100.00;103861.50;6285647;22;20026;-80
2022/01/18 10:38:50;;;;;;;12.20;3.45;;;;;;;6.41;100.00;103850.22;6321166;22;20073;-79
2022/01/18 10:41:38;;;;;;;15.90;3.92;;;;;;;6.46;100.00;103854.03;6277221;22;20011;-79
2022/01/18 10:44:12;;;;;;;13.93;4.15;;;;;;;6.53;100.00;103848.41;6324932;22;20019;-80
2022/01/18 10:46:42;;;;;;;13.82;3.42;;;;;;;6.58;100.00;103847.03;6311350;22;20046;-80
2022/01/18 10:49:10;;;;;;;13.63;3.20;;;;;;;6.63;100.00;103856.13;6300600;22;20019;-79
2022/01/18 10:51:48;;;;;;;12.38;2.95;;;;;;;6.65;100.00;103853.56;6313387;22;20010;-80
2022/01/18 10:54:16;;;;;;;13.48;3.60;;;;;;;6.69;100.00;103855.63;6281158;22;20022;-79
2022/01/18 10:56:49;;;;;;;12.52;3.30;;;;;;;6.72;100.00;103861.03;6271321;22;20448;-80
2022/01/18 10:59:25;;;;;;;17.50;3.95;;;;;;;6.75;100.00;103850.78;6282345;22;20337;-80
2022/01/18 11:02:09;;;;;;;14.07;2.70;;;;;;;6.79;100.00;103858.03;6292268;22;20019;-79
2022/01/18 11:04:40;;;;;;;12.27;2.20;;;;;;;6.79;100.00;103849.28;6276045;22;20027;-79
2022/01/18 11:07:09;;;;;;;14.60;3.25;;;;;;;6.78;100.00;103850.06;6309161;22;20139;-80
2022/01/18 11:09:38;;;;;;;19.08;3.90;;;;;;;6.78;100.00;103844.81;6283586;22;20046;-80
2022/01/18 11:12:10;;;;;;;13.38;2.42;;;;;;;6.74;100.00;103838.47;6299855;22;20663;-79
2022/01/18 11:14:45;;;;;;;9.88;2.63;;;;;;;6.73;100.00;103831.44;6303990;22;20018;-80
2022/01/18 11:17:24;;;;;;;12.40;2.45;;;;;;;6.75;100.00;103835.06;6259045;22;20215;-79
2022/01/18 11:19:57;;;;;;;12.88;2.38;;;;;;;6.74;100.00;103837.56;6267665;22;20023;-79
2022/01/18 11:22:26;;;;;;;14.18;2.45;;;;;;;6.71;100.00;103837.34;6269901;22;20124;-79
2022/01/18 11:24:59;;;;;;;11.10;2.65;;;;;;;6.70;100.00;103833.84;6310624;22;20018;-79
2022/01/18 11:27:30;;;;;;;12.25;3.50;;;;;;;6.68;100.00;103834.53;6325118;22;20022;-79
2022/01/18 11:29:58;;;;;;;8.75;2.80;;;;;;;6.66;100.00;103837.06;6280139;22;20015;-80
2022/01/18 11:32:28;;;;;;;12.52;2.88;;;;;;;6.62;100.00;103835.03;6282040;22;20023;-79
2022/01/18 11:35:06;;;;;;;13.98;3.63;;;;;;;6.63;100.00;103822.06;6318270;22;20022;-78
2022/01/18 11:38:09;;;;;;;7.93;2.75;;;;;;;6.69;100.00;103818.00;6309566;22;20228;-79
2022/01/18 11:40:46;;;;;;;15.43;2.90;;;;;;;6.71;100.00;103819.00;6309379;22;20022;-79
2022/01/18 11:43:33;;;;;;;13.35;3.55;;;;;;;6.75;100.00;103824.56;6300240;22;20015;-79
2022/01/18 11:46:26;;;;;;;14.60;3.20;;;;;;;6.79;100.00;103823.06;6298903;22;20021;-78
2022/01/18 11:49:22;;;;;;;14.27;3.67;;;;;;;6.79;100.00;103815.19;6312454;22;20019;-79
2022/01/18 11:51:56;;;;;;;21.48;4.22;;;;;;;6.74;100.00;103803.50;6311284;22;20448;-78
2022/01/18 11:57:23;;;;;;;11.65;3.30;;;;;;;6.70;100.00;103809.34;6300891;22;20360;-79
2022/01/18 12:00:17;;;;;;;13.85;3.83;;;;;;;6.64;100.00;103800.25;6274373;22;20031;-78
2022/01/18 12:02:48;;;;;;;23.92;4.65;;;;;;;6.60;100.00;103803.50;6334742;22;20014;-79
2022/01/18 12:05:19;;;;;;;19.27;4.38;;;;;;;6.61;100.00;103799.16;6270384;22;20033;-79
2022/01/18 12:07:51;;;;;;;;;;;;;;;6.59;100.00;103799.03;6310582;22;20051;-78
2022/01/18 12:10:31;;;;;;;15.88;4.40;;;;;;;6.63;100.00;103800.16;6329300;22;20244;-79
2022/01/18 12:13:05;;;;;;;20.75;4.70;;;;;;;6.60;100.00;103803.50;6319593;22;20014;-77
2022/01/18 12:15:38;;;;;;;16.17;5.55;;;;;;;6.62;100.00;103803.59;6311142;22;20019;-78
2022/01/18 12:18:10;;;;;;;15.93;4.85;;;;;;;6.66;100.00;103800.38;6261076;22;20480;-80
2022/01/18 12:20:42;;;;;;;17.52;4.63;;;;;;;6.71;100.00;103792.81;6298864;22;20321;-78
2022/01/18 12:23:26;;;;;;;17.02;4.65;;;;;;;6.75;100.00;103790.50;6301511;22;20482;-77
2022/01/18 12:26:10;;;;;;;18.25;4.72;;;;;;;6.75;100.00;103797.47;6302759;22;20318;-78
2022/01/18 12:31:53;;;;;;;15.18;4.55;;;;;;;6.77;100.00;103796.75;6342170;22;20445;-80
2022/01/18 12:34:25;;;;;;;19.35;4.35;;;;;;;6.71;100.00;103790.19;6331893;22;20019;-79
2022/01/18 12:37:10;;;;;;;18.20;4.63;;;;;;;6.66;100.00;103800.38;6321313;22;20049;-79
2022/01/18 12:45:12;;;;;;;16.00;4.13;;;;;;;6.57;100.00;103803.28;6333971;22;20021;-80
2022/01/18 12:48:05;;;;;;;17.23;3.85;;;;;;;6.54;100.00;103792.59;6276800;22;20025;-80
2022/01/18 12:50:45;;;;;;;12.23;4.00;;;;;;;6.52;100.00;103796.84;6243061;22;20148;-80
2022/01/18 12:53:33;;;;;;;17.67;4.40;;;;;;;6.58;100.00;103793.72;6294230;22;20440;-79
2022/01/18 12:56:06;;;;;;;16.25;4.65;;;;;;;6.60;100.00;103798.25;6336373;22;20033;-79
2022/01/18 12:58:48;;;;;;;13.40;3.38;;;;;;;6.55;100.00;103791.78;6332098;22;20140;-79
2022/01/18 13:01:21;;;;;;;10.80;3.20;;;;;;;6.54;100.00;103792.59;6299956;22;20597;-80
2022/01/18 13:03:53;;;;;;;13.20;3.55;;;;;;;6.57;100.00;103797.13;6250605;22;20015;-80